createdAt,value
2018-08-28T00:01:51.253Z,8.93
2018-08-28T00:04:25.602Z,10.20
2018-08-28T00:07:00.641Z,8.63
2018-08-28T00:09:34.620Z,8.30
2018-08-28T00:12:09.003Z,10.13
2018-08-28T00:14:43.472Z,10.23
2018-08-28T00:17:17.767Z,11.97
2018-08-28T00:19:52.259Z,10.63
2018-08-28T00:22:26.633Z,9.33
2018-08-28T00:25:01.088Z,10.33
2018-08-28T00:27:34.928Z,10.40
2018-08-28T00:30:09.203Z,13.50
2018-08-28T00:32:43.156Z,8.00
2018-08-28T00:35:17.635Z,13.40
2018-08-28T00:37:51.960Z,9.47
2018-08-28T00:40:26.035Z,11.17
2018-08-28T00:43:00.232Z,12.93
2018-08-28T00:45:34.194Z,9.13
2018-08-28T00:48:08.476Z,15.10
2018-08-28T00:50:42.006Z,10.20
2018-08-28T00:53:17.606Z,8.57
2018-08-28T00:55:52.905Z,9.30
2018-08-28T00:58:27.627Z,7.27
2018-08-28T01:01:01.938Z,11.13
2018-08-28T01:03:35.750Z,11.23
2018-08-28T01:06:10.013Z,8.33
2018-08-28T01:08:43.536Z,9.43
2018-08-28T01:11:17.193Z,10.23
2018-08-28T01:13:51.281Z,8.00
2018-08-28T01:16:25.404Z,10.90
2018-08-28T01:19:00.121Z,8.63
2018-08-28T01:21:34.648Z,10.10
2018-08-28T01:24:08.455Z,8.00
2018-08-28T01:26:42.266Z,7.77
2018-08-28T01:29:10.938Z,8.33
2018-08-28T01:31:39.432Z,6.83
2018-08-28T01:34:07.982Z,7.23
2018-08-28T01:36:36.450Z,9.03
2018-08-28T01:39:05.839Z,7.27
2018-08-28T01:41:34.328Z,8.00
2018-08-28T01:44:03.228Z,7.73
2018-08-28T01:46:31.705Z,8.53
2018-08-28T01:49:00.165Z,6.13
2018-08-28T01:51:28.726Z,7.23
2018-08-28T01:53:57.201Z,7.27
2018-08-28T01:56:25.733Z,9.30
2018-08-28T01:58:54.249Z,8.20
2018-08-28T02:01:22.755Z,7.97
2018-08-28T02:03:51.251Z,6.97
2018-08-28T02:06:19.744Z,6.63
2018-08-28T02:08:48.228Z,6.97
2018-08-28T02:11:16.751Z,7.53
2018-08-28T02:13:45.224Z,6.47
2018-08-28T02:16:13.688Z,6.10
2018-08-28T02:18:42.556Z,7.90
2018-08-28T02:21:11.064Z,8.83
2018-08-28T02:23:39.533Z,7.23
2018-08-28T02:26:08.065Z,8.10
2018-08-28T02:28:36.608Z,6.20
2018-08-28T02:31:05.136Z,10.23
2018-08-28T02:33:33.760Z,8.40
2018-08-28T02:36:02.195Z,8.60
2018-08-28T02:38:30.891Z,8.87
2018-08-28T02:40:59.391Z,7.27
2018-08-28T02:43:27.875Z,6.30
2018-08-28T02:45:56.408Z,6.37
2018-08-28T02:48:25.010Z,6.50
2018-08-28T02:50:53.569Z,7.77
2018-08-28T02:53:22.045Z,7.50
2018-08-28T02:55:50.607Z,8.93
2018-08-28T02:58:19.219Z,9.83
2018-08-28T03:00:47.704Z,7.10
2018-08-28T03:03:16.302Z,5.93
2018-08-28T03:05:44.872Z,8.30
2018-08-28T03:08:13.358Z,6.83
2018-08-28T03:10:41.855Z,6.90
2018-08-28T03:13:10.383Z,6.93
2018-08-28T03:15:38.931Z,5.53
2018-08-28T03:18:07.574Z,5.80
2018-08-28T03:20:36.164Z,5.60
2018-08-28T03:23:04.720Z,6.97
2018-08-28T03:25:33.234Z,5.03
2018-08-28T03:28:01.789Z,7.70
2018-08-28T03:30:30.289Z,7.00
2018-08-28T03:32:58.856Z,6.73
2018-08-28T03:35:27.347Z,6.33
2018-08-28T03:37:55.832Z,8.03
2018-08-28T03:40:24.414Z,6.73
2018-08-28T03:42:53.008Z,7.50
2018-08-28T03:45:21.492Z,6.43
2018-08-28T03:47:49.974Z,9.63
2018-08-28T03:50:18.481Z,7.37
2018-08-28T03:52:46.971Z,6.87
2018-08-28T03:55:15.491Z,8.90
2018-08-28T03:57:43.965Z,7.03
2018-08-28T04:00:12.425Z,8.90
2018-08-28T04:02:40.951Z,10.73
2018-08-28T04:05:09.173Z,8.47
2018-08-28T04:07:37.631Z,5.57
2018-08-28T04:10:06.688Z,7.17
2018-08-28T04:12:35.205Z,8.23
2018-08-28T04:15:03.800Z,7.87
2018-08-28T04:17:36.428Z,6.77
2018-08-28T04:20:05.084Z,8.80
2018-08-28T04:22:33.619Z,6.07
2018-08-28T04:25:02.160Z,7.53
2018-08-28T04:27:30.677Z,7.70
2018-08-28T04:29:59.216Z,6.13
2018-08-28T04:32:27.701Z,8.27
2018-08-28T04:34:57.223Z,7.53
2018-08-28T04:37:25.724Z,7.27
2018-08-28T04:39:54.217Z,6.93
2018-08-28T04:42:22.942Z,8.47
2018-08-28T04:44:51.464Z,9.40
2018-08-28T04:47:19.921Z,12.50
2018-08-28T04:49:48.434Z,8.50
2018-08-28T04:52:16.936Z,12.80
2018-08-28T04:54:45.517Z,10.97
2018-08-28T04:57:14.085Z,11.90
2018-08-28T04:59:42.704Z,13.03
2018-08-28T05:02:11.723Z,12.20
2018-08-28T05:04:41.253Z,12.87
2018-08-28T05:07:09.776Z,13.30
2018-08-28T05:09:38.305Z,15.27
2018-08-28T05:12:06.882Z,12.27
2018-08-28T05:14:36.512Z,13.30
2018-08-28T05:17:05.205Z,13.63
2018-08-28T05:19:33.673Z,9.13
2018-08-28T05:22:02.184Z,14.53
2018-08-28T05:24:30.672Z,11.63
2018-08-28T05:26:59.589Z,11.80
2018-08-28T05:29:28.070Z,14.80
2018-08-28T05:31:56.593Z,10.83
2018-08-28T05:34:25.104Z,15.30
2018-08-28T05:36:53.678Z,15.60
2018-08-28T05:39:23.128Z,12.37
2018-08-28T05:41:51.703Z,17.23
2018-08-28T05:44:20.168Z,18.40
2018-08-28T05:46:48.673Z,15.37
2018-08-28T05:49:17.145Z,19.23
2018-08-28T05:51:46.669Z,24.60
2018-08-28T05:54:15.216Z,21.27
2018-08-28T05:56:43.673Z,16.40
2018-08-28T05:59:12.256Z,17.33
2018-08-28T06:01:40.778Z,18.13
2018-08-28T06:04:09.772Z,18.33
2018-08-28T06:06:38.288Z,16.57
2018-08-28T06:09:07.221Z,18.40
2018-08-28T06:11:36.545Z,18.83
2018-08-28T06:14:10.681Z,13.80
2018-08-28T06:16:40.673Z,15.37
2018-08-28T06:19:09.591Z,13.77
2018-08-28T06:21:38.321Z,14.43
2018-08-28T06:24:07.325Z,13.47
2018-08-28T06:26:36.268Z,13.40
2018-08-28T06:29:05.457Z,13.63
2018-08-28T06:31:34.590Z,18.27
2018-08-28T06:34:03.437Z,14.07
2018-08-28T06:36:32.047Z,12.70
2018-08-28T06:39:00.751Z,13.43
2018-08-28T06:41:29.528Z,17.00
2018-08-28T06:43:58.173Z,12.03
2018-08-28T06:46:26.862Z,15.13
2018-08-28T06:48:56.069Z,14.47
2018-08-28T06:51:24.633Z,13.93
2018-08-28T06:53:53.317Z,10.60
2018-08-28T06:56:21.964Z,11.57
2018-08-28T06:58:50.568Z,13.07
2018-08-28T07:01:19.254Z,12.30
2018-08-28T07:03:47.885Z,15.30
2018-08-28T07:06:16.465Z,10.90
2018-08-28T07:08:45.097Z,12.60
2018-08-28T07:11:13.658Z,17.73
2018-08-28T07:13:42.273Z,10.97
2018-08-28T07:16:10.888Z,11.23
2018-08-28T07:18:39.493Z,10.93
2018-08-28T07:21:08.120Z,17.37
2018-08-28T07:23:36.726Z,10.77
2018-08-28T07:26:05.423Z,15.43
2018-08-28T07:28:33.988Z,11.43
2018-08-28T07:31:02.571Z,14.40
2018-08-28T07:33:31.154Z,12.30
2018-08-28T07:35:59.795Z,12.33
2018-08-28T07:38:28.470Z,12.60
2018-08-28T07:40:57.161Z,10.87
2018-08-28T07:43:25.829Z,8.97
2018-08-28T07:45:54.416Z,11.97
2018-08-28T07:48:23.056Z,13.20
2018-08-28T07:50:51.644Z,9.60
2018-08-28T07:53:20.212Z,9.80
2018-08-28T07:55:48.696Z,10.07
2018-08-28T07:58:17.305Z,11.50
2018-08-28T08:00:45.984Z,8.63
2018-08-28T08:03:14.617Z,10.00
2018-08-28T08:05:43.253Z,8.57
2018-08-28T08:08:11.838Z,11.20
2018-08-28T08:10:40.427Z,8.67
2018-08-28T08:13:09.021Z,10.83
2018-08-28T08:15:37.576Z,10.57
2018-08-28T08:18:06.559Z,11.37
2018-08-28T08:20:35.065Z,9.40
2018-08-28T08:23:03.562Z,10.03
2018-08-28T08:25:32.088Z,7.27
2018-08-28T08:28:00.653Z,6.50
2018-08-28T08:30:29.216Z,8.63
2018-08-28T08:32:57.771Z,7.10
2018-08-28T08:35:26.338Z,7.33
2018-08-28T08:37:54.809Z,8.93
2018-08-28T08:40:23.356Z,8.23
2018-08-28T08:42:51.959Z,6.87
2018-08-28T08:45:20.518Z,9.93
2018-08-28T08:47:49.317Z,5.47
2018-08-28T08:50:17.808Z,5.17
2018-08-28T08:52:46.359Z,9.63
2018-08-28T08:55:14.866Z,7.27
2018-08-28T08:57:43.356Z,5.53
2018-08-28T09:00:11.891Z,6.03
2018-08-28T09:02:40.384Z,7.10
2018-08-28T09:05:09.333Z,5.07
2018-08-28T09:07:37.860Z,4.17
2018-08-28T09:10:06.426Z,3.60
2018-08-28T09:12:34.969Z,5.97
2018-08-28T09:15:03.516Z,4.60
2018-08-28T09:17:32.009Z,8.40
2018-08-28T09:20:00.502Z,3.83
2018-08-28T09:22:29.469Z,6.10
2018-08-28T09:24:58.081Z,4.50
2018-08-28T09:27:26.640Z,4.20
2018-08-28T09:29:55.484Z,4.53
2018-08-28T09:32:23.968Z,3.10
2018-08-28T09:34:52.544Z,2.70
2018-08-28T09:37:21.039Z,4.23
2018-08-28T09:39:49.918Z,4.07
2018-08-28T09:42:18.600Z,6.50
2018-08-28T09:44:47.096Z,3.07
2018-08-28T09:47:15.657Z,5.80
2018-08-28T09:49:44.132Z,4.03
2018-08-28T09:52:12.664Z,2.70
2018-08-28T09:54:41.152Z,4.67
2018-08-28T09:57:09.658Z,7.17
2018-08-28T09:59:38.193Z,5.03
2018-08-28T10:02:06.879Z,4.23
2018-08-28T10:04:35.404Z,6.77
2018-08-28T10:07:03.943Z,3.20
2018-08-28T10:09:32.429Z,2.00
2018-08-28T10:12:00.998Z,2.83
2018-08-28T10:14:29.558Z,2.97
2018-08-28T10:16:58.048Z,2.77
2018-08-28T10:19:26.575Z,2.53
2018-08-28T10:21:55.137Z,3.40
2018-08-28T10:24:23.636Z,4.17
2018-08-28T10:26:52.192Z,5.73
2018-08-28T10:29:20.694Z,2.43
2018-08-28T10:31:49.244Z,3.30
2018-08-28T10:34:17.801Z,2.93
2018-08-28T10:36:46.286Z,3.57
2018-08-28T10:39:14.767Z,3.13
2018-08-28T10:41:43.277Z,2.40
2018-08-28T10:44:11.792Z,3.83
2018-08-28T10:46:40.732Z,3.93
2018-08-28T10:49:09.188Z,3.90
2018-08-28T10:51:37.865Z,3.37
2018-08-28T10:54:06.569Z,5.13
2018-08-28T10:56:35.153Z,4.67
2018-08-28T10:59:03.756Z,6.30
2018-08-28T11:01:32.251Z,5.90
2018-08-28T11:04:00.717Z,5.83
2018-08-28T11:06:29.272Z,2.57
2018-08-28T11:08:57.879Z,4.50
2018-08-28T11:11:26.406Z,6.03
2018-08-28T11:13:54.892Z,4.53
2018-08-28T11:16:23.400Z,4.17
2018-08-28T11:18:51.997Z,4.00
2018-08-28T11:21:20.543Z,3.23
2018-08-28T11:23:49.146Z,3.53
2018-08-28T11:26:17.630Z,3.30
2018-08-28T11:28:46.179Z,3.30
2018-08-28T11:31:14.850Z,3.20
2018-08-28T11:33:43.292Z,2.87
2018-08-28T11:36:11.956Z,3.07
2018-08-28T11:38:40.474Z,2.50
2018-08-28T11:41:08.993Z,3.53
2018-08-28T11:43:37.692Z,2.73
2018-08-28T11:46:06.604Z,4.37
2018-08-28T11:48:35.514Z,7.07
2018-08-28T11:51:04.005Z,5.93
2018-08-28T11:53:32.472Z,3.60
2018-08-28T11:56:01.061Z,4.77
2018-08-28T11:58:29.604Z,7.77
2018-08-28T12:00:58.548Z,7.03
2018-08-28T12:03:27.077Z,5.97
2018-08-28T12:05:55.692Z,6.33
2018-08-28T12:08:24.221Z,7.30
2018-08-28T12:10:52.830Z,7.30
2018-08-28T12:13:21.427Z,5.10
2018-08-28T12:15:49.992Z,7.30
2018-08-28T12:18:18.528Z,6.80
2018-08-28T12:20:47.115Z,7.90
2018-08-28T12:23:15.623Z,5.60
2018-08-28T12:25:44.175Z,6.97
2018-08-28T12:28:12.695Z,6.57
2018-08-28T12:30:41.169Z,5.93
2018-08-28T12:33:09.998Z,7.63
2018-08-28T12:35:38.521Z,6.57
2018-08-28T12:38:07.083Z,8.47
2018-08-28T12:40:35.658Z,10.00
2018-08-28T12:43:04.241Z,5.67
2018-08-28T12:45:32.777Z,6.83
2018-08-28T12:48:01.735Z,7.77
2018-08-28T12:50:30.300Z,8.07
2018-08-28T12:52:58.840Z,10.77
2018-08-28T12:55:27.444Z,8.90
2018-08-28T12:57:56.040Z,6.70
2018-08-28T13:00:24.644Z,7.77
2018-08-28T13:02:53.192Z,9.70
2018-08-28T13:05:21.858Z,8.23
2018-08-28T13:07:50.485Z,7.60
2018-08-28T13:10:19.237Z,8.33
2018-08-28T13:12:47.974Z,9.07
2018-08-28T13:15:16.593Z,6.37
2018-08-28T13:17:45.216Z,8.30
2018-08-28T13:20:13.773Z,6.43
2018-08-28T13:22:42.272Z,8.87
2018-08-28T13:25:11.465Z,7.50
2018-08-28T13:27:39.965Z,6.03
2018-08-28T13:30:08.472Z,5.83
2018-08-28T13:32:36.951Z,6.87
2018-08-28T13:35:05.469Z,7.10
2018-08-28T13:37:33.961Z,6.20
2018-08-28T13:40:02.601Z,5.07
2018-08-28T13:42:31.140Z,8.17
2018-08-28T13:44:59.654Z,5.60
2018-08-28T13:47:28.132Z,7.97
2018-08-28T13:49:57.025Z,10.07
2018-08-28T13:52:25.485Z,6.60
2018-08-28T13:54:53.971Z,7.50
2018-08-28T13:57:22.460Z,9.87
2018-08-28T13:59:51.199Z,9.10
2018-08-28T14:02:19.673Z,8.60
2018-08-28T14:04:49.086Z,10.33
2018-08-28T14:07:17.688Z,8.30
2018-08-28T14:09:46.253Z,9.60
2018-08-28T14:12:14.786Z,9.03
2018-08-28T14:14:43.330Z,8.57
2018-08-28T14:17:11.832Z,8.40
2018-08-28T14:19:40.368Z,8.13
2018-08-28T14:22:08.953Z,9.23
2018-08-28T14:24:37.464Z,8.57
2018-08-28T14:27:06.705Z,7.53
2018-08-28T14:29:35.321Z,8.63
2018-08-28T14:32:03.856Z,8.37
2018-08-28T14:34:32.464Z,11.33
2018-08-28T14:37:00.968Z,9.27
2018-08-28T14:39:29.451Z,8.93
2018-08-28T14:41:58.078Z,9.03
2018-08-28T14:44:26.565Z,9.70
2018-08-28T14:46:55.045Z,9.40
2018-08-28T14:49:23.625Z,8.23
2018-08-28T14:51:52.149Z,8.50
2018-08-28T14:54:20.666Z,7.23
2018-08-28T14:56:49.227Z,9.07
2018-08-28T14:59:18.060Z,7.37
2018-08-28T15:01:46.533Z,7.50
2018-08-28T15:04:15.092Z,9.00
2018-08-28T15:06:43.641Z,10.70
2018-08-28T15:09:12.128Z,6.93
2018-08-28T15:11:40.612Z,8.33
2018-08-28T15:14:09.159Z,8.73
2018-08-28T15:16:37.726Z,10.27
2018-08-28T15:19:06.543Z,8.67
2018-08-28T15:21:35.051Z,7.53
2018-08-28T15:24:03.537Z,7.30
2018-08-28T15:26:32.040Z,7.83
2018-08-28T15:29:00.605Z,7.83
2018-08-28T15:31:29.107Z,11.43
2018-08-28T15:33:57.694Z,13.93
2018-08-28T15:36:26.368Z,13.90
2018-08-28T15:38:55.193Z,12.73
2018-08-28T15:41:23.716Z,10.90
2018-08-28T15:43:52.240Z,11.70
2018-08-28T15:46:20.796Z,7.90
2018-08-28T15:48:49.379Z,9.90
2018-08-28T15:51:17.947Z,6.87
2018-08-28T15:53:47.468Z,11.57
2018-08-28T15:56:15.988Z,11.73
2018-08-28T15:58:44.544Z,12.27
2018-08-28T16:01:13.104Z,9.23
2018-08-28T16:03:41.623Z,12.27
2018-08-28T16:06:10.141Z,10.20
2018-08-28T16:08:38.654Z,13.57
2018-08-28T16:11:07.224Z,20.57
2018-08-28T16:13:35.705Z,12.63
2018-08-28T16:16:04.246Z,49.33
2018-08-28T16:18:32.783Z,18.27
2018-08-28T16:21:01.518Z,14.37
2018-08-28T16:23:32.665Z,14.50
2018-08-28T16:26:01.397Z,8.30
2018-08-28T16:28:30.080Z,45.23
2018-08-28T16:30:58.660Z,45.20
2018-08-28T16:33:27.263Z,42.47
2018-08-28T16:35:56.108Z,37.00
2018-08-28T16:38:24.461Z,27.07
2018-08-28T16:40:53.041Z,38.13
2018-08-28T16:43:21.576Z,18.73
2018-08-28T16:45:50.162Z,12.03
2018-08-28T16:48:18.748Z,11.83
2018-08-28T16:50:47.240Z,14.27
2018-08-28T16:53:15.757Z,17.13
2018-08-28T16:55:44.342Z,21.90
2018-08-28T16:58:12.843Z,7.37
2018-08-28T17:13:31.179Z,8.83
2018-08-28T17:19:11.362Z,8.00
2018-08-28T17:22:08.713Z,10.57
2018-08-28T17:24:58.336Z,8.87
2018-08-28T17:28:13.516Z,6.80
2018-08-28T17:31:20.392Z,7.33
2018-08-28T17:37:02.954Z,6.77
2018-08-28T17:39:57.264Z,9.53
2018-08-28T17:48:53.379Z,7.73
2018-08-28T17:52:24.122Z,6.23
2018-08-28T17:55:11.809Z,6.93
2018-08-28T18:00:53.674Z,6.70
2018-08-28T18:09:40.125Z,8.40
2018-08-28T18:12:40.293Z,6.67
2018-08-28T18:15:11.256Z,6.03
2018-08-28T18:27:14.807Z,14.60
2018-08-28T18:29:50.646Z,12.70
2018-08-28T18:32:25.389Z,11.13
2018-08-28T18:35:00.203Z,11.10
2018-08-28T18:37:34.945Z,9.87
2018-08-28T18:40:03.852Z,11.50
2018-08-28T18:42:32.341Z,12.20
2018-08-28T18:45:00.907Z,13.80
2018-08-28T18:47:29.381Z,16.43
2018-08-28T18:49:57.966Z,15.77
2018-08-28T18:52:26.569Z,13.37
2018-08-28T18:54:55.064Z,12.27
2018-08-28T18:57:23.684Z,9.63
2018-08-28T18:59:52.252Z,9.80
2018-08-28T19:02:20.881Z,8.67
2018-08-28T19:04:49.404Z,10.03
2018-08-28T19:07:17.894Z,9.00
2018-08-28T19:09:46.369Z,8.07
2018-08-28T19:12:14.990Z,9.53
2018-08-28T19:14:43.579Z,7.10
2018-08-28T19:17:12.068Z,12.90
2018-08-28T19:19:40.979Z,9.30
2018-08-28T19:22:09.781Z,8.43
2018-08-28T19:24:38.292Z,10.87
2018-08-28T19:27:06.925Z,11.13
2018-08-28T19:29:35.438Z,8.90
2018-08-28T19:32:04.048Z,13.73
2018-08-28T19:34:32.904Z,37.60
2018-08-28T19:37:01.502Z,9.77
2018-08-28T19:39:30.249Z,8.83
2018-08-28T19:41:58.826Z,8.10
2018-08-28T19:44:27.292Z,8.50
2018-08-28T19:46:55.876Z,9.47
2018-08-28T19:49:24.356Z,7.93
2018-08-28T19:51:52.892Z,7.70
2018-08-28T19:54:21.411Z,6.73
2018-08-28T19:56:49.970Z,7.87
2018-08-28T19:59:18.517Z,9.83
2018-08-28T20:01:47.021Z,10.70
2018-08-28T20:04:15.553Z,14.63
2018-08-28T20:06:44.036Z,124.77
2018-08-28T20:09:12.532Z,165.13
2018-08-28T20:11:41.062Z,148.40
2018-08-28T20:14:09.695Z,86.00
2018-08-28T20:16:38.309Z,81.80
2018-08-28T20:19:06.864Z,63.87
2018-08-28T20:21:35.358Z,31.40
2018-08-28T20:24:04.581Z,23.40
2018-08-28T20:26:33.126Z,19.50
2018-08-28T20:29:01.641Z,12.97
2018-08-28T20:31:30.243Z,18.33
2018-08-28T20:33:58.757Z,17.47
2018-08-28T20:36:27.304Z,18.83
2018-08-28T20:38:55.857Z,21.53
2018-08-28T20:41:24.400Z,19.30
2018-08-28T20:43:52.919Z,15.40
2018-08-28T20:46:21.400Z,15.50
2018-08-28T20:48:49.935Z,11.40
2018-08-28T20:51:18.442Z,14.90
2018-08-28T20:53:47.014Z,13.77
2018-08-28T20:56:15.516Z,17.90
2018-08-28T20:58:44.028Z,21.83
2018-08-28T21:01:12.593Z,33.77
2018-08-28T21:03:41.128Z,22.97
2018-08-28T21:06:09.638Z,20.30
2018-08-28T21:08:38.191Z,26.30
2018-08-28T21:11:06.876Z,23.53
2018-08-28T21:13:35.400Z,37.90
2018-08-28T21:16:03.999Z,34.77
2018-08-28T21:18:32.762Z,15.10
2018-08-28T21:21:01.267Z,18.50
2018-08-28T21:23:29.837Z,16.23
2018-08-28T21:25:58.510Z,16.43
2018-08-28T21:28:27.037Z,23.83
2018-08-28T21:30:56.946Z,56.00
2018-08-28T21:33:25.718Z,191.10
2018-08-28T21:35:54.843Z,309.33
2018-08-28T21:38:23.780Z,229.00
2018-08-28T21:40:52.593Z,172.23
2018-08-28T21:43:21.353Z,102.53
2018-08-28T21:45:50.645Z,63.37
2018-08-28T21:48:19.768Z,39.10
2018-08-28T21:50:48.331Z,43.93
2018-08-28T21:53:17.087Z,38.93
2018-08-28T21:55:45.667Z,30.27
2018-08-28T21:58:14.240Z,27.00
2018-08-28T22:00:42.897Z,21.60
2018-08-28T22:03:11.438Z,19.27
2018-08-28T22:05:40.071Z,15.80
2018-08-28T22:08:08.656Z,20.70
2018-08-28T22:10:37.240Z,17.10
2018-08-28T22:13:05.837Z,14.03
2018-08-28T22:15:34.370Z,13.27
2018-08-28T22:18:02.904Z,17.10
2018-08-28T22:20:31.452Z,34.27
2018-08-28T22:23:00.100Z,60.67
2018-08-28T22:25:28.609Z,55.80
2018-08-28T22:27:57.216Z,44.90
2018-08-28T22:30:25.749Z,35.90
2018-08-28T22:32:54.292Z,24.57
2018-08-28T22:35:22.831Z,16.53
2018-08-28T22:37:51.463Z,15.37
2018-08-28T22:40:20.037Z,18.63
2018-08-28T22:42:48.532Z,18.73
2018-08-28T22:45:17.060Z,14.57
2018-08-28T22:47:45.632Z,12.87
2018-08-28T22:50:14.123Z,15.80
2018-08-28T22:52:42.637Z,25.30
2018-08-28T22:55:11.140Z,23.47
2018-08-28T22:57:39.632Z,18.50
2018-08-28T23:00:08.216Z,16.97
2018-08-28T23:02:36.853Z,13.80
2018-08-28T23:05:05.855Z,12.03
2018-08-28T23:07:34.349Z,12.67
2018-08-28T23:10:02.897Z,10.53
2018-08-28T23:12:31.530Z,12.80
2018-08-28T23:15:00.060Z,10.80
2018-08-28T23:17:28.702Z,10.70
2018-08-28T23:19:57.272Z,10.33
2018-08-28T23:22:26.814Z,9.30
2018-08-28T23:24:55.338Z,10.73
2018-08-28T23:27:23.877Z,11.23
2018-08-28T23:29:53.538Z,10.93
2018-08-28T23:32:22.132Z,11.17
2018-08-28T23:34:50.667Z,9.03
2018-08-28T23:37:19.222Z,9.60
2018-08-28T23:39:47.743Z,9.33
2018-08-28T23:42:16.280Z,9.83
2018-08-28T23:44:44.892Z,10.07
2018-08-28T23:47:13.412Z,10.93
2018-08-28T23:49:41.933Z,9.70
2018-08-28T23:52:10.763Z,9.47
2018-08-28T23:54:39.280Z,10.17
2018-08-28T23:57:07.804Z,10.47
2018-08-28T23:59:36.532Z,13.97
